Portada
METAR-TAF:

METAR-TAF

Aeroports :

Bluefields, Nicaragua

latitud: 12-00N, longitud: 083-46W, altitud: 5 m

Observació

L'informe es va fer fa 10 hores i 23 minuts, a les 23:00 UTC
Vent 4 kt del Est/Nord-Est
Temperatura 29°C
Humitat 79%
Pressió 1010 hPa
Visibilitat 10 km o més
Núvols disperses a una alçada de 2000 ft

METAR: MNBL 202300Z 07004KT 9999 SCT020 29/25 Q1010

Hora: 03:23 (09:23 UTC)

Pronòstic

L'informe es va fer fa 11 hores i 48 minuts, a les 21:35 UTC
Pronòstic vàlid del 21 a les 00 UTC al 21 a les 24 UTC
Vent 4 kt amb direcció variable
Visibilitat 10 km o més
Núvols disperses a una alçada de 1700 ft
Núvols disperses a una alçada de 7000 ft
Probabilitat 40%
entre 50 i 00 UTC
Cel ennuvolat a una alçada de 1700 ft
Evolucionant progressivament
l' 21 a les 16 UTC al 21 a les 18 UTC
Vent 6 kt del Est

TAF: MNBL 202135Z 2100/2124 VRB04KT 9999 SCT017 SCT070 PROB40 5000 RA/DZ BKN017 BECMG 2116/2118 09006KT

Observacions i pronòstics meteorològics de més de 4000 aeroports (METAR i TAF).

Les estacions disponibles són els punts grocs i vermells al mapa.

Posi el ratolí al punt desitjat per veure el nom de l'estació.

Feu clic per veure les observacions i els pronòstics meteorològics.

Per canviar el mapa: feu clic els botons verds amb una creu de color negre per apropar; al botó verd amb un guió per allunyar la imatge; o en les fletxes verdes per a mapes adjacents.


METAR-TAF: